sensor_id;sensor_type;location;lat;lon;timestamp;P1;durP1;ratioP1;P2;durP2;ratioP2
30303;SDS011;17112;48.636;10.152;2023-07-31T00:00:46;2.88;;;1.48;;
30303;SDS011;17112;48.636;10.152;2023-07-31T00:03:12;2.40;;;1.23;;
30303;SDS011;17112;48.636;10.152;2023-07-31T00:05:38;5.47;;;1.27;;
30303;SDS011;17112;48.636;10.152;2023-07-31T00:08:03;2.25;;;1.10;;
30303;SDS011;17112;48.636;10.152;2023-07-31T00:10:29;1.77;;;1.23;;
30303;SDS011;17112;48.636;10.152;2023-07-31T00:12:54;2.92;;;1.30;;
30303;SDS011;17112;48.636;10.152;2023-07-31T00:15:20;4.53;;;1.50;;
30303;SDS011;17112;48.636;10.152;2023-07-31T00:17:46;2.70;;;1.00;;
30303;SDS011;17112;48.636;10.152;2023-07-31T00:20:12;1.48;;;1.27;;
30303;SDS011;17112;48.636;10.152;2023-07-31T00:22:38;2.40;;;1.17;;
30303;SDS011;17112;48.636;10.152;2023-07-31T00:25:04;1.98;;;1.15;;
30303;SDS011;17112;48.636;10.152;2023-07-31T00:27:31;4.97;;;1.13;;
30303;SDS011;17112;48.636;10.152;2023-07-31T00:29:57;2.80;;;1.30;;
30303;SDS011;17112;48.636;10.152;2023-07-31T00:32:23;2.38;;;0.90;;
30303;SDS011;17112;48.636;10.152;2023-07-31T00:34:48;3.63;;;1.00;;
30303;SDS011;17112;48.636;10.152;2023-07-31T00:37:14;5.53;;;1.05;;
30303;SDS011;17112;48.636;10.152;2023-07-31T00:39:40;1.92;;;1.20;;
30303;SDS011;17112;48.636;10.152;2023-07-31T00:42:06;5.05;;;1.00;;
30303;SDS011;17112;48.636;10.152;2023-07-31T00:44:32;3.80;;;1.10;;
30303;SDS011;17112;48.636;10.152;2023-07-31T00:46:58;1.25;;;0.90;;
30303;SDS011;17112;48.636;10.152;2023-07-31T00:49:24;3.00;;;1.10;;
30303;SDS011;17112;48.636;10.152;2023-07-31T00:51:50;2.40;;;0.80;;
30303;SDS011;17112;48.636;10.152;2023-07-31T00:54:17;3.47;;;1.13;;
30303;SDS011;17112;48.636;10.152;2023-07-31T00:56:44;5.25;;;0.90;;
30303;SDS011;17112;48.636;10.152;2023-07-31T00:59:11;4.47;;;1.13;;
30303;SDS011;17112;48.636;10.152;2023-07-31T01:01:37;4.57;;;1.20;;
30303;SDS011;17112;48.636;10.152;2023-07-31T01:04:03;2.92;;;1.17;;
30303;SDS011;17112;48.636;10.152;2023-07-31T01:11:56;3.92;;;1.25;;
30303;SDS011;17112;48.636;10.152;2023-07-31T01:14:25;2.78;;;1.20;;
30303;SDS011;17112;48.636;10.152;2023-07-31T01:16:50;2.72;;;1.00;;
30303;SDS011;17112;48.636;10.152;2023-07-31T01:19:17;4.43;;;1.20;;
30303;SDS011;17112;48.636;10.152;2023-07-31T01:27:17;2.05;;;1.20;;
30303;SDS011;17112;48.636;10.152;2023-07-31T01:30:00;2.33;;;1.20;;
30303;SDS011;17112;48.636;10.152;2023-07-31T01:32:35;3.55;;;1.20;;
30303;SDS011;17112;48.636;10.152;2023-07-31T01:35:05;4.35;;;1.50;;
30303;SDS011;17112;48.636;10.152;2023-07-31T01:37:32;4.68;;;1.30;;
30303;SDS011;17112;48.636;10.152;2023-07-31T01:39:58;2.40;;;1.10;;
30303;SDS011;17112;48.636;10.152;2023-07-31T01:42:23;4.70;;;1.40;;
30303;SDS011;17112;48.636;10.152;2023-07-31T01:44:49;1.75;;;1.10;;
30303;SDS011;17112;48.636;10.152;2023-07-31T01:47:14;4.07;;;1.20;;
30303;SDS011;17112;48.636;10.152;2023-07-31T01:49:40;2.22;;;1.00;;
30303;SDS011;17112;48.636;10.152;2023-07-31T01:52:06;3.10;;;1.02;;
30303;SDS011;17112;48.636;10.152;2023-07-31T01:54:32;2.58;;;1.00;;
30303;SDS011;17112;48.636;10.152;2023-07-31T01:56:58;3.95;;;1.15;;
30303;SDS011;17112;48.636;10.152;2023-07-31T01:59:24;12.15;;;1.30;;
30303;SDS011;17112;48.636;10.152;2023-07-31T02:01:49;4.95;;;1.23;;
30303;SDS011;17112;48.636;10.152;2023-07-31T02:04:15;3.47;;;1.10;;
30303;SDS011;17112;48.636;10.152;2023-07-31T02:06:41;2.42;;;1.02;;
30303;SDS011;17112;48.636;10.152;2023-07-31T02:09:06;1.63;;;1.20;;
30303;SDS011;17112;48.636;10.152;2023-07-31T02:11:32;2.47;;;1.25;;
30303;SDS011;17112;48.636;10.152;2023-07-31T02:13:58;3.60;;;1.38;;
30303;SDS011;17112;48.636;10.152;2023-07-31T02:16:24;4.50;;;1.40;;
30303;SDS011;17112;48.636;10.152;2023-07-31T02:18:49;6.38;;;1.40;;
30303;SDS011;17112;48.636;10.152;2023-07-31T02:21:15;4.78;;;1.10;;
30303;SDS011;17112;48.636;10.152;2023-07-31T02:23:41;2.13;;;1.00;;
30303;SDS011;17112;48.636;10.152;2023-07-31T02:26:06;2.33;;;1.27;;
30303;SDS011;17112;48.636;10.152;2023-07-31T02:28:32;7.95;;;1.40;;
30303;SDS011;17112;48.636;10.152;2023-07-31T02:30:58;2.70;;;1.20;;
30303;SDS011;17112;48.636;10.152;2023-07-31T02:33:24;8.55;;;1.25;;
30303;SDS011;17112;48.636;10.152;2023-07-31T02:35:50;2.50;;;1.10;;
30303;SDS011;17112;48.636;10.152;2023-07-31T02:38:15;5.35;;;1.20;;
30303;SDS011;17112;48.636;10.152;2023-07-31T02:40:41;5.85;;;1.17;;
30303;SDS011;17112;48.636;10.152;2023-07-31T02:43:07;2.00;;;1.17;;
30303;SDS011;17112;48.636;10.152;2023-07-31T02:45:33;2.95;;;1.10;;
30303;SDS011;17112;48.636;10.152;2023-07-31T02:47:59;4.43;;;1.50;;
30303;SDS011;17112;48.636;10.152;2023-07-31T02:50:25;2.15;;;1.30;;
30303;SDS011;17112;48.636;10.152;2023-07-31T02:52:52;2.72;;;1.60;;
30303;SDS011;17112;48.636;10.152;2023-07-31T02:55:18;2.80;;;1.27;;
30303;SDS011;17112;48.636;10.152;2023-07-31T02:57:43;3.72;;;1.30;;
30303;SDS011;17112;48.636;10.152;2023-07-31T03:00:09;4.68;;;1.30;;
30303;SDS011;17112;48.636;10.152;2023-07-31T03:02:35;1.13;;;1.00;;
30303;SDS011;17112;48.636;10.152;2023-07-31T03:05:01;4.43;;;1.45;;
30303;SDS011;17112;48.636;10.152;2023-07-31T03:07:26;2.67;;;1.25;;
30303;SDS011;17112;48.636;10.152;2023-07-31T03:09:52;1.73;;;1.00;;
30303;SDS011;17112;48.636;10.152;2023-07-31T03:12:18;2.15;;;1.20;;
30303;SDS011;17112;48.636;10.152;2023-07-31T03:14:44;2.70;;;1.10;;
30303;SDS011;17112;48.636;10.152;2023-07-31T03:17:10;3.55;;;1.30;;
30303;SDS011;17112;48.636;10.152;2023-07-31T03:19:36;3.90;;;1.42;;
30303;SDS011;17112;48.636;10.152;2023-07-31T03:22:01;1.77;;;1.10;;
30303;SDS011;17112;48.636;10.152;2023-07-31T03:24:28;1.73;;;1.20;;
30303;SDS011;17112;48.636;10.152;2023-07-31T03:26:54;5.28;;;1.48;;
30303;SDS011;17112;48.636;10.152;2023-07-31T03:29:20;3.63;;;1.40;;
30303;SDS011;17112;48.636;10.152;2023-07-31T03:31:45;2.33;;;1.30;;
30303;SDS011;17112;48.636;10.152;2023-07-31T03:34:11;3.45;;;1.17;;
30303;SDS011;17112;48.636;10.152;2023-07-31T03:36:37;4.55;;;1.38;;
30303;SDS011;17112;48.636;10.152;2023-07-31T03:39:02;4.93;;;1.40;;
30303;SDS011;17112;48.636;10.152;2023-07-31T03:41:28;2.20;;;1.25;;
30303;SDS011;17112;48.636;10.152;2023-07-31T03:43:54;2.38;;;1.25;;
30303;SDS011;17112;48.636;10.152;2023-07-31T03:46:23;4.32;;;1.50;;
30303;SDS011;17112;48.636;10.152;2023-07-31T03:48:49;5.25;;;1.35;;
30303;SDS011;17112;48.636;10.152;2023-07-31T03:51:15;2.78;;;1.30;;
30303;SDS011;17112;48.636;10.152;2023-07-31T03:53:41;2.10;;;1.20;;
30303;SDS011;17112;48.636;10.152;2023-07-31T03:56:08;3.03;;;1.35;;
30303;SDS011;17112;48.636;10.152;2023-07-31T03:58:33;4.00;;;1.10;;
30303;SDS011;17112;48.636;10.152;2023-07-31T04:01:01;3.42;;;1.40;;
30303;SDS011;17112;48.636;10.152;2023-07-31T04:03:27;3.35;;;1.45;;
30303;SDS011;17112;48.636;10.152;2023-07-31T04:05:53;5.38;;;1.50;;
30303;SDS011;17112;48.636;10.152;2023-07-31T04:08:21;3.33;;;1.40;;
30303;SDS011;17112;48.636;10.152;2023-07-31T04:10:49;4.22;;;1.50;;
30303;SDS011;17112;48.636;10.152;2023-07-31T04:13:15;3.88;;;1.10;;
30303;SDS011;17112;48.636;10.152;2023-07-31T04:15:41;2.22;;;1.23;;
30303;SDS011;17112;48.636;10.152;2023-07-31T04:18:07;4.93;;;1.55;;
30303;SDS011;17112;48.636;10.152;2023-07-31T04:20:33;2.65;;;1.17;;
30303;SDS011;17112;48.636;10.152;2023-07-31T04:22:59;5.00;;;1.30;;
30303;SDS011;17112;48.636;10.152;2023-07-31T04:25:24;3.38;;;1.25;;
30303;SDS011;17112;48.636;10.152;2023-07-31T04:27:50;2.72;;;1.15;;
30303;SDS011;17112;48.636;10.152;2023-07-31T04:30:16;2.58;;;1.33;;
30303;SDS011;17112;48.636;10.152;2023-07-31T04:32:41;2.47;;;1.20;;
30303;SDS011;17112;48.636;10.152;2023-07-31T04:35:07;2.55;;;1.00;;
30303;SDS011;17112;48.636;10.152;2023-07-31T04:37:33;3.50;;;1.30;;
30303;SDS011;17112;48.636;10.152;2023-07-31T04:39:58;5.47;;;1.20;;
30303;SDS011;17112;48.636;10.152;2023-07-31T04:42:24;4.32;;;1.17;;
30303;SDS011;17112;48.636;10.152;2023-07-31T04:44:50;1.88;;;1.13;;
30303;SDS011;17112;48.636;10.152;2023-07-31T04:47:17;3.20;;;1.42;;
30303;SDS011;17112;48.636;10.152;2023-07-31T04:49:43;5.10;;;1.25;;
30303;SDS011;17112;48.636;10.152;2023-07-31T04:52:09;3.60;;;1.40;;
30303;SDS011;17112;48.636;10.152;2023-07-31T04:54:34;4.13;;;1.48;;
30303;SDS011;17112;48.636;10.152;2023-07-31T04:57:00;4.80;;;1.50;;
30303;SDS011;17112;48.636;10.152;2023-07-31T04:59:26;4.22;;;1.45;;
30303;SDS011;17112;48.636;10.152;2023-07-31T05:01:51;2.03;;;1.20;;
30303;SDS011;17112;48.636;10.152;2023-07-31T05:04:17;3.50;;;1.10;;
30303;SDS011;17112;48.636;10.152;2023-07-31T05:06:43;2.42;;;1.50;;
30303;SDS011;17112;48.636;10.152;2023-07-31T05:09:08;3.20;;;1.35;;
30303;SDS011;17112;48.636;10.152;2023-07-31T05:11:35;2.17;;;1.40;;
30303;SDS011;17112;48.636;10.152;2023-07-31T05:14:01;6.93;;;1.35;;
30303;SDS011;17112;48.636;10.152;2023-07-31T05:16:27;5.60;;;1.30;;
30303;SDS011;17112;48.636;10.152;2023-07-31T05:18:52;3.05;;;1.45;;
30303;SDS011;17112;48.636;10.152;2023-07-31T05:21:18;1.85;;;1.20;;
30303;SDS011;17112;48.636;10.152;2023-07-31T05:23:43;4.60;;;1.40;;
30303;SDS011;17112;48.636;10.152;2023-07-31T05:26:09;5.15;;;1.52;;
30303;SDS011;17112;48.636;10.152;2023-07-31T05:28:35;3.17;;;1.40;;
30303;SDS011;17112;48.636;10.152;2023-07-31T05:31:04;4.72;;;1.40;;
30303;SDS011;17112;48.636;10.152;2023-07-31T05:33:30;4.07;;;1.27;;
30303;SDS011;17112;48.636;10.152;2023-07-31T05:35:56;2.53;;;1.45;;
30303;SDS011;17112;48.636;10.152;2023-07-31T05:38:22;7.45;;;1.42;;
30303;SDS011;17112;48.636;10.152;2023-07-31T05:40:47;5.53;;;1.60;;
30303;SDS011;17112;48.636;10.152;2023-07-31T05:43:13;3.60;;;1.42;;
30303;SDS011;17112;48.636;10.152;2023-07-31T05:45:39;5.35;;;1.40;;
30303;SDS011;17112;48.636;10.152;2023-07-31T05:48:06;4.25;;;1.33;;
30303;SDS011;17112;48.636;10.152;2023-07-31T05:50:32;4.53;;;1.40;;
30303;SDS011;17112;48.636;10.152;2023-07-31T05:52:58;5.75;;;1.55;;
30303;SDS011;17112;48.636;10.152;2023-07-31T05:55:24;4.22;;;1.35;;
30303;SDS011;17112;48.636;10.152;2023-07-31T05:57:53;3.35;;;1.45;;
30303;SDS011;17112;48.636;10.152;2023-07-31T06:00:19;2.88;;;1.42;;
30303;SDS011;17112;48.636;10.152;2023-07-31T06:02:45;10.25;;;1.80;;
30303;SDS011;17112;48.636;10.152;2023-07-31T06:05:14;8.52;;;2.22;;
30303;SDS011;17112;48.636;10.152;2023-07-31T06:07:40;7.65;;;1.90;;
30303;SDS011;17112;48.636;10.152;2023-07-31T06:10:06;3.80;;;1.90;;
30303;SDS011;17112;48.636;10.152;2023-07-31T06:12:33;17.00;;;1.98;;
30303;SDS011;17112;48.636;10.152;2023-07-31T06:14:59;3.58;;;1.65;;
30303;SDS011;17112;48.636;10.152;2023-07-31T06:17:25;1.77;;;1.40;;
30303;SDS011;17112;48.636;10.152;2023-07-31T06:19:54;4.47;;;1.85;;
30303;SDS011;17112;48.636;10.152;2023-07-31T06:22:19;4.22;;;1.60;;
30303;SDS011;17112;48.636;10.152;2023-07-31T06:24:46;4.20;;;1.35;;
30303;SDS011;17112;48.636;10.152;2023-07-31T06:27:11;2.08;;;1.30;;
30303;SDS011;17112;48.636;10.152;2023-07-31T06:29:37;1.77;;;1.25;;
30303;SDS011;17112;48.636;10.152;2023-07-31T06:32:03;3.00;;;1.50;;
30303;SDS011;17112;48.636;10.152;2023-07-31T06:34:29;3.88;;;1.35;;
30303;SDS011;17112;48.636;10.152;2023-07-31T06:36:55;4.72;;;1.50;;
30303;SDS011;17112;48.636;10.152;2023-07-31T06:39:21;2.63;;;1.48;;
30303;SDS011;17112;48.636;10.152;2023-07-31T06:41:47;4.53;;;1.55;;
30303;SDS011;17112;48.636;10.152;2023-07-31T06:44:13;3.90;;;1.50;;
30303;SDS011;17112;48.636;10.152;2023-07-31T06:46:38;3.40;;;1.50;;
30303;SDS011;17112;48.636;10.152;2023-07-31T06:49:04;3.35;;;1.40;;
30303;SDS011;17112;48.636;10.152;2023-07-31T06:51:30;4.65;;;1.70;;
30303;SDS011;17112;48.636;10.152;2023-07-31T06:53:56;4.38;;;1.40;;
30303;SDS011;17112;48.636;10.152;2023-07-31T06:56:22;2.70;;;1.30;;
30303;SDS011;17112;48.636;10.152;2023-07-31T06:58:48;5.32;;;1.38;;
30303;SDS011;17112;48.636;10.152;2023-07-31T07:01:14;5.40;;;2.10;;
30303;SDS011;17112;48.636;10.152;2023-07-31T07:03:39;3.63;;;1.73;;
30303;SDS011;17112;48.636;10.152;2023-07-31T07:06:05;2.80;;;1.23;;
30303;SDS011;17112;48.636;10.152;2023-07-31T07:08:31;3.92;;;1.33;;
30303;SDS011;17112;48.636;10.152;2023-07-31T07:10:56;2.00;;;1.20;;
30303;SDS011;17112;48.636;10.152;2023-07-31T07:13:22;4.30;;;1.52;;
30303;SDS011;17112;48.636;10.152;2023-07-31T07:15:48;5.18;;;1.40;;
30303;SDS011;17112;48.636;10.152;2023-07-31T07:18:14;4.05;;;1.52;;
30303;SDS011;17112;48.636;10.152;2023-07-31T07:20:45;4.07;;;1.50;;
30303;SDS011;17112;48.636;10.152;2023-07-31T07:23:12;8.77;;;1.40;;
30303;SDS011;17112;48.636;10.152;2023-07-31T07:25:38;3.75;;;1.25;;
30303;SDS011;17112;48.636;10.152;2023-07-31T07:28:04;3.38;;;1.38;;
30303;SDS011;17112;48.636;10.152;2023-07-31T07:30:29;3.85;;;1.27;;
30303;SDS011;17112;48.636;10.152;2023-07-31T07:32:55;3.67;;;1.30;;
30303;SDS011;17112;48.636;10.152;2023-07-31T07:35:20;2.67;;;1.30;;
30303;SDS011;17112;48.636;10.152;2023-07-31T07:37:48;2.08;;;1.27;;
30303;SDS011;17112;48.636;10.152;2023-07-31T07:40:15;3.83;;;1.30;;
30303;SDS011;17112;48.636;10.152;2023-07-31T07:42:41;2.00;;;1.27;;
30303;SDS011;17112;48.636;10.152;2023-07-31T07:45:06;10.77;;;1.83;;
30303;SDS011;17112;48.636;10.152;2023-07-31T07:47:32;5.85;;;1.45;;
30303;SDS011;17112;48.636;10.152;2023-07-31T07:49:58;5.32;;;1.40;;
30303;SDS011;17112;48.636;10.152;2023-07-31T07:52:24;5.50;;;1.17;;
30303;SDS011;17112;48.636;10.152;2023-07-31T07:54:50;4.85;;;1.30;;
30303;SDS011;17112;48.636;10.152;2023-07-31T07:57:16;2.85;;;1.05;;
30303;SDS011;17112;48.636;10.152;2023-07-31T07:59:41;6.55;;;1.48;;
30303;SDS011;17112;48.636;10.152;2023-07-31T08:02:07;2.53;;;1.60;;
30303;SDS011;17112;48.636;10.152;2023-07-31T08:04:33;5.68;;;1.95;;
30303;SDS011;17112;48.636;10.152;2023-07-31T08:06:58;5.70;;;1.73;;
30303;SDS011;17112;48.636;10.152;2023-07-31T08:09:24;2.10;;;1.25;;
30303;SDS011;17112;48.636;10.152;2023-07-31T08:11:50;3.03;;;1.50;;
30303;SDS011;17112;48.636;10.152;2023-07-31T08:14:15;4.47;;;1.77;;
30303;SDS011;17112;48.636;10.152;2023-07-31T08:16:41;3.63;;;1.48;;
30303;SDS011;17112;48.636;10.152;2023-07-31T08:19:07;6.47;;;1.55;;
30303;SDS011;17112;48.636;10.152;2023-07-31T08:21:33;3.38;;;1.63;;
30303;SDS011;17112;48.636;10.152;2023-07-31T08:23:59;2.67;;;1.27;;
30303;SDS011;17112;48.636;10.152;2023-07-31T08:26:24;3.63;;;1.42;;
30303;SDS011;17112;48.636;10.152;2023-07-31T08:28:50;5.25;;;1.48;;
30303;SDS011;17112;48.636;10.152;2023-07-31T08:31:16;5.45;;;1.58;;
30303;SDS011;17112;48.636;10.152;2023-07-31T08:33:41;5.25;;;1.90;;
30303;SDS011;17112;48.636;10.152;2023-07-31T08:36:07;6.90;;;1.80;;
30303;SDS011;17112;48.636;10.152;2023-07-31T08:38:33;6.50;;;1.95;;
30303;SDS011;17112;48.636;10.152;2023-07-31T08:40:59;7.22;;;1.92;;
30303;SDS011;17112;48.636;10.152;2023-07-31T08:43:27;5.60;;;2.20;;
30303;SDS011;17112;48.636;10.152;2023-07-31T08:45:54;5.03;;;1.65;;
30303;SDS011;17112;48.636;10.152;2023-07-31T08:48:20;7.70;;;1.75;;
30303;SDS011;17112;48.636;10.152;2023-07-31T08:50:47;4.45;;;1.65;;
30303;SDS011;17112;48.636;10.152;2023-07-31T08:53:13;5.30;;;2.05;;
30303;SDS011;17112;48.636;10.152;2023-07-31T08:55:39;6.40;;;2.15;;
30303;SDS011;17112;48.636;10.152;2023-07-31T08:58:05;5.70;;;2.08;;
30303;SDS011;17112;48.636;10.152;2023-07-31T09:00:32;5.75;;;2.47;;
30303;SDS011;17112;48.636;10.152;2023-07-31T09:02:59;7.07;;;1.85;;
30303;SDS011;17112;48.636;10.152;2023-07-31T09:05:28;3.90;;;1.70;;
30303;SDS011;17112;48.636;10.152;2023-07-31T09:07:55;8.02;;;2.22;;
30303;SDS011;17112;48.636;10.152;2023-07-31T09:10:22;8.85;;;2.38;;
30303;SDS011;17112;48.636;10.152;2023-07-31T09:12:48;8.20;;;2.33;;
30303;SDS011;17112;48.636;10.152;2023-07-31T09:15:15;6.28;;;1.70;;
30303;SDS011;17112;48.636;10.152;2023-07-31T09:17:42;5.20;;;2.00;;
30303;SDS011;17112;48.636;10.152;2023-07-31T09:20:15;5.45;;;2.30;;
30303;SDS011;17112;48.636;10.152;2023-07-31T09:22:42;5.90;;;2.25;;
30303;SDS011;17112;48.636;10.152;2023-07-31T09:25:19;5.28;;;1.65;;
30303;SDS011;17112;48.636;10.152;2023-07-31T09:30:15;5.00;;;1.73;;
30303;SDS011;17112;48.636;10.152;2023-07-31T09:32:42;4.82;;;2.20;;
30303;SDS011;17112;48.636;10.152;2023-07-31T09:35:19;5.07;;;1.65;;
30303;SDS011;17112;48.636;10.152;2023-07-31T09:37:50;4.78;;;1.77;;
30303;SDS011;17112;48.636;10.152;2023-07-31T09:42:58;6.18;;;1.73;;
30303;SDS011;17112;48.636;10.152;2023-07-31T09:45:29;4.10;;;1.75;;
30303;SDS011;17112;48.636;10.152;2023-07-31T09:47:55;4.15;;;1.92;;
30303;SDS011;17112;48.636;10.152;2023-07-31T09:50:22;3.97;;;1.80;;
30303;SDS011;17112;48.636;10.152;2023-07-31T09:52:49;5.93;;;1.85;;
30303;SDS011;17112;48.636;10.152;2023-07-31T09:55:15;4.25;;;1.83;;
30303;SDS011;17112;48.636;10.152;2023-07-31T09:57:44;6.40;;;2.10;;
30303;SDS011;17112;48.636;10.152;2023-07-31T10:00:14;5.00;;;2.25;;
30303;SDS011;17112;48.636;10.152;2023-07-31T10:02:47;3.15;;;1.63;;
30303;SDS011;17112;48.636;10.152;2023-07-31T10:05:13;4.88;;;1.90;;
30303;SDS011;17112;48.636;10.152;2023-07-31T10:07:45;3.15;;;1.70;;
30303;SDS011;17112;48.636;10.152;2023-07-31T10:10:16;3.10;;;1.60;;
30303;SDS011;17112;48.636;10.152;2023-07-31T10:12:46;5.00;;;1.90;;
30303;SDS011;17112;48.636;10.152;2023-07-31T10:15:17;3.78;;;1.58;;
30303;SDS011;17112;48.636;10.152;2023-07-31T10:17:44;3.08;;;1.65;;
30303;SDS011;17112;48.636;10.152;2023-07-31T10:20:12;4.80;;;1.80;;
30303;SDS011;17112;48.636;10.152;2023-07-31T10:22:41;5.32;;;1.70;;
30303;SDS011;17112;48.636;10.152;2023-07-31T10:25:11;3.22;;;1.95;;
30303;SDS011;17112;48.636;10.152;2023-07-31T10:27:38;2.88;;;1.75;;
30303;SDS011;17112;48.636;10.152;2023-07-31T10:30:05;5.70;;;1.85;;
30303;SDS011;17112;48.636;10.152;2023-07-31T10:32:33;2.65;;;1.67;;
30303;SDS011;17112;48.636;10.152;2023-07-31T10:35:00;3.50;;;2.05;;
30303;SDS011;17112;48.636;10.152;2023-07-31T10:37:29;5.70;;;1.90;;
30303;SDS011;17112;48.636;10.152;2023-07-31T10:42:35;4.63;;;1.80;;
30303;SDS011;17112;48.636;10.152;2023-07-31T10:45:05;10.93;;;1.52;;
30303;SDS011;17112;48.636;10.152;2023-07-31T10:47:38;4.22;;;1.80;;
30303;SDS011;17112;48.636;10.152;2023-07-31T10:52:44;11.43;;;1.80;;
30303;SDS011;17112;48.636;10.152;2023-07-31T10:55:16;3.83;;;1.70;;
30303;SDS011;17112;48.636;10.152;2023-07-31T10:57:51;2.80;;;1.58;;
30303;SDS011;17112;48.636;10.152;2023-07-31T11:00:27;4.15;;;1.77;;
30303;SDS011;17112;48.636;10.152;2023-07-31T11:03:01;4.43;;;1.50;;
30303;SDS011;17112;48.636;10.152;2023-07-31T11:08:13;5.03;;;1.63;;
30303;SDS011;17112;48.636;10.152;2023-07-31T11:10:44;2.97;;;1.50;;
30303;SDS011;17112;48.636;10.152;2023-07-31T11:13:11;5.35;;;2.22;;
30303;SDS011;17112;48.636;10.152;2023-07-31T11:15:37;4.15;;;1.70;;
30303;SDS011;17112;48.636;10.152;2023-07-31T11:18:03;3.35;;;1.70;;
30303;SDS011;17112;48.636;10.152;2023-07-31T11:20:30;5.07;;;1.77;;
30303;SDS011;17112;48.636;10.152;2023-07-31T11:23:07;4.63;;;1.73;;
30303;SDS011;17112;48.636;10.152;2023-07-31T11:25:34;4.35;;;1.85;;
30303;SDS011;17112;48.636;10.152;2023-07-31T11:28:07;5.00;;;1.50;;
30303;SDS011;17112;48.636;10.152;2023-07-31T11:30:38;4.68;;;1.90;;
30303;SDS011;17112;48.636;10.152;2023-07-31T11:33:06;3.75;;;1.85;;
30303;SDS011;17112;48.636;10.152;2023-07-31T11:35:33;2.65;;;1.50;;
30303;SDS011;17112;48.636;10.152;2023-07-31T11:38:00;3.80;;;1.95;;
30303;SDS011;17112;48.636;10.152;2023-07-31T11:40:26;3.28;;;1.80;;
30303;SDS011;17112;48.636;10.152;2023-07-31T11:42:57;4.38;;;2.15;;
30303;SDS011;17112;48.636;10.152;2023-07-31T11:45:27;3.75;;;1.92;;
30303;SDS011;17112;48.636;10.152;2023-07-31T11:47:56;3.30;;;1.70;;
30303;SDS011;17112;48.636;10.152;2023-07-31T11:50:22;2.53;;;1.60;;
30303;SDS011;17112;48.636;10.152;2023-07-31T11:52:59;4.10;;;1.85;;
30303;SDS011;17112;48.636;10.152;2023-07-31T11:57:52;4.90;;;2.33;;
30303;SDS011;17112;48.636;10.152;2023-07-31T12:00:20;4.63;;;2.00;;
30303;SDS011;17112;48.636;10.152;2023-07-31T12:02:46;4.32;;;2.17;;
30303;SDS011;17112;48.636;10.152;2023-07-31T12:05:12;4.38;;;1.67;;
30303;SDS011;17112;48.636;10.152;2023-07-31T12:10:26;4.03;;;2.10;;
30303;SDS011;17112;48.636;10.152;2023-07-31T12:12:59;4.90;;;2.40;;
30303;SDS011;17112;48.636;10.152;2023-07-31T12:18:07;4.10;;;1.90;;
30303;SDS011;17112;48.636;10.152;2023-07-31T12:20:35;4.35;;;1.80;;
30303;SDS011;17112;48.636;10.152;2023-07-31T12:23:04;5.05;;;2.13;;
30303;SDS011;17112;48.636;10.152;2023-07-31T12:25:31;3.38;;;1.90;;
30303;SDS011;17112;48.636;10.152;2023-07-31T12:27:57;5.25;;;2.00;;
30303;SDS011;17112;48.636;10.152;2023-07-31T12:30:32;4.68;;;2.25;;
30303;SDS011;17112;48.636;10.152;2023-07-31T12:33:06;3.42;;;1.98;;
30303;SDS011;17112;48.636;10.152;2023-07-31T12:35:38;5.00;;;2.03;;
30303;SDS011;17112;48.636;10.152;2023-07-31T12:38:06;10.48;;;2.38;;
30303;SDS011;17112;48.636;10.152;2023-07-31T12:40:32;4.80;;;2.15;;
30303;SDS011;17112;48.636;10.152;2023-07-31T12:42:58;2.85;;;1.90;;
30303;SDS011;17112;48.636;10.152;2023-07-31T12:45:27;3.85;;;1.70;;
30303;SDS011;17112;48.636;10.152;2023-07-31T12:47:53;7.20;;;2.10;;
30303;SDS011;17112;48.636;10.152;2023-07-31T12:50:19;4.05;;;1.90;;
30303;SDS011;17112;48.636;10.152;2023-07-31T12:52:44;6.50;;;2.05;;
30303;SDS011;17112;48.636;10.152;2023-07-31T12:55:10;7.13;;;2.10;;
30303;SDS011;17112;48.636;10.152;2023-07-31T12:57:36;5.07;;;2.10;;
30303;SDS011;17112;48.636;10.152;2023-07-31T13:00:02;3.28;;;1.73;;
30303;SDS011;17112;48.636;10.152;2023-07-31T13:02:28;3.30;;;1.88;;
30303;SDS011;17112;48.636;10.152;2023-07-31T13:04:54;5.00;;;1.80;;
30303;SDS011;17112;48.636;10.152;2023-07-31T13:07:21;4.32;;;1.95;;
30303;SDS011;17112;48.636;10.152;2023-07-31T13:09:47;6.78;;;2.17;;
30303;SDS011;17112;48.636;10.152;2023-07-31T13:12:13;5.13;;;1.98;;
30303;SDS011;17112;48.636;10.152;2023-07-31T13:14:39;3.80;;;2.00;;
30303;SDS011;17112;48.636;10.152;2023-07-31T13:17:04;3.45;;;1.92;;
30303;SDS011;17112;48.636;10.152;2023-07-31T13:19:31;4.00;;;1.83;;
30303;SDS011;17112;48.636;10.152;2023-07-31T13:21:56;4.55;;;2.08;;
30303;SDS011;17112;48.636;10.152;2023-07-31T13:24:22;3.53;;;1.98;;
30303;SDS011;17112;48.636;10.152;2023-07-31T13:26:48;3.92;;;2.00;;
30303;SDS011;17112;48.636;10.152;2023-07-31T13:29:13;5.78;;;1.95;;
30303;SDS011;17112;48.636;10.152;2023-07-31T13:31:39;3.72;;;1.90;;
30303;SDS011;17112;48.636;10.152;2023-07-31T13:34:04;3.75;;;2.22;;
30303;SDS011;17112;48.636;10.152;2023-07-31T13:36:30;2.35;;;1.80;;
30303;SDS011;17112;48.636;10.152;2023-07-31T13:38:56;5.07;;;2.42;;
30303;SDS011;17112;48.636;10.152;2023-07-31T13:41:21;5.95;;;2.03;;
30303;SDS011;17112;48.636;10.152;2023-07-31T13:43:47;3.90;;;2.33;;
30303;SDS011;17112;48.636;10.152;2023-07-31T13:46:12;4.95;;;2.25;;
30303;SDS011;17112;48.636;10.152;2023-07-31T13:48:38;3.60;;;2.30;;
30303;SDS011;17112;48.636;10.152;2023-07-31T13:51:04;2.72;;;2.00;;
30303;SDS011;17112;48.636;10.152;2023-07-31T13:53:30;6.45;;;2.17;;
30303;SDS011;17112;48.636;10.152;2023-07-31T13:55:56;3.67;;;2.22;;
30303;SDS011;17112;48.636;10.152;2023-07-31T13:58:21;4.53;;;2.45;;
30303;SDS011;17112;48.636;10.152;2023-07-31T14:00:47;6.85;;;2.35;;
30303;SDS011;17112;48.636;10.152;2023-07-31T14:03:12;3.80;;;2.28;;
30303;SDS011;17112;48.636;10.152;2023-07-31T14:05:38;4.32;;;2.22;;
30303;SDS011;17112;48.636;10.152;2023-07-31T14:08:04;3.75;;;2.00;;
30303;SDS011;17112;48.636;10.152;2023-07-31T14:10:30;3.83;;;2.17;;
30303;SDS011;17112;48.636;10.152;2023-07-31T14:12:55;9.02;;;1.95;;
30303;SDS011;17112;48.636;10.152;2023-07-31T14:15:21;6.03;;;2.47;;
30303;SDS011;17112;48.636;10.152;2023-07-31T14:17:46;3.95;;;1.98;;
30303;SDS011;17112;48.636;10.152;2023-07-31T14:20:12;3.95;;;2.03;;
30303;SDS011;17112;48.636;10.152;2023-07-31T14:22:38;6.85;;;2.35;;
30303;SDS011;17112;48.636;10.152;2023-07-31T14:25:04;3.75;;;2.05;;
30303;SDS011;17112;48.636;10.152;2023-07-31T14:27:30;4.70;;;2.10;;
30303;SDS011;17112;48.636;10.152;2023-07-31T14:29:55;6.28;;;2.10;;
30303;SDS011;17112;48.636;10.152;2023-07-31T14:32:24;6.43;;;2.42;;
30303;SDS011;17112;48.636;10.152;2023-07-31T14:34:50;5.38;;;2.20;;
30303;SDS011;17112;48.636;10.152;2023-07-31T14:37:16;4.88;;;2.33;;
30303;SDS011;17112;48.636;10.152;2023-07-31T14:39:42;5.43;;;2.10;;
30303;SDS011;17112;48.636;10.152;2023-07-31T14:42:08;8.70;;;2.10;;
30303;SDS011;17112;48.636;10.152;2023-07-31T14:44:34;3.08;;;1.67;;
30303;SDS011;17112;48.636;10.152;2023-07-31T14:47:00;5.72;;;2.22;;
30303;SDS011;17112;48.636;10.152;2023-07-31T14:49:25;2.42;;;1.73;;
30303;SDS011;17112;48.636;10.152;2023-07-31T14:51:53;2.97;;;1.88;;
30303;SDS011;17112;48.636;10.152;2023-07-31T14:54:19;5.55;;;2.88;;
30303;SDS011;17112;48.636;10.152;2023-07-31T14:56:45;8.15;;;2.47;;
30303;SDS011;17112;48.636;10.152;2023-07-31T14:59:10;3.42;;;2.20;;
30303;SDS011;17112;48.636;10.152;2023-07-31T15:01:36;6.70;;;2.10;;